Time;durP1;ratioP1;P1;durP2;ratioP2;P2;SDS_P1;SDS_P2;PMS_P1;PMS_P2;Temp;Humidity;BMP_temperature;BMP_pressure;BME280_temperature;BME280_humidity;BME280_pressure;Samples;Min_cycle;Max_cycle;Signal;HPM_P1;HPM_P2
2021/04/04 00:00:34;;;;;;;15.43;4.17;;;;;;;6.14;97.32;101803.72;4971759;28;20226;-70
2021/04/04 00:03:02;;;;;;;14.67;3.90;;;;;;;6.28;96.30;101795.34;4939840;28;20202;-69
2021/04/04 00:05:27;;;;;;;11.07;3.60;;;;;;;6.25;95.61;101803.03;4972042;28;20708;-70
2021/04/04 00:07:53;;;;;;;11.70;3.73;;;;;;;5.99;96.72;101805.88;4973615;28;20202;-69
2021/04/04 00:10:21;;;;;;;13.57;3.60;;;;;;;5.88;97.68;101809.22;4972802;28;20194;-69
2021/04/04 00:12:49;;;;;;;13.63;3.57;;;;;;;5.90;98.38;101806.31;4971878;28;20186;-70
2021/04/04 00:15:16;;;;;;;13.70;4.00;;;;;;;6.03;98.60;101809.78;4971695;28;20221;-71
2021/04/04 00:17:42;;;;;;;11.70;3.57;;;;;;;6.11;97.98;101804.13;4924666;28;20188;-69
2021/04/04 00:20:12;;;;;;;12.37;3.50;;;;;;;5.79;98.52;101826.69;4955769;28;20560;-70
2021/04/04 00:22:38;;;;;;;14.27;3.70;;;;;;;6.09;98.64;101810.78;4972977;28;20195;-70
2021/04/04 00:25:05;;;;;;;13.00;3.60;;;;;;;6.08;97.62;101815.38;4939569;28;20209;-70
2021/04/04 00:27:30;;;;;;;11.30;3.83;;;;;;;5.86;99.16;101814.00;4956077;28;20182;-69
2021/04/04 00:29:57;;;;;;;11.50;3.60;;;;;;;5.64;100.00;101813.63;4956370;28;20190;-69
2021/04/04 00:32:25;;;;;;;11.40;3.70;;;;;;;5.83;100.00;101810.91;4954755;28;20720;-70
2021/04/04 00:34:50;;;;;;;11.77;3.37;;;;;;;5.93;98.31;101801.31;4973415;28;20276;-70
2021/04/04 00:37:16;;;;;;;10.20;3.20;;;;;;;5.81;99.51;101803.03;4924352;28;20225;-69
2021/04/04 00:39:44;;;;;;;12.17;3.60;;;;;;;5.93;98.56;101795.91;4972178;28;20574;-69
2021/04/04 00:42:10;;;;;;;18.57;3.83;;;;;;;5.82;99.20;101795.75;4954176;28;20852;-70
2021/04/04 00:44:35;;;;;;;11.47;3.60;;;;;;;5.76;99.78;101792.06;4972858;28;20250;-70
2021/04/04 00:47:03;;;;;;;15.93;3.60;;;;;;;5.74;100.00;101787.94;4955337;28;20222;-69
2021/04/04 00:49:28;;;;;;;14.23;3.70;;;;;;;5.92;99.15;101791.59;4955754;28;20195;-70
2021/04/04 00:51:59;;;;;;;12.50;4.03;;;;;;;6.03;98.59;101784.69;4971654;28;20230;-70
2021/04/04 00:54:28;;;;;;;11.90;3.60;;;;;;;6.08;97.51;101791.09;4940095;28;20198;-71
2021/04/04 00:56:53;;;;;;;11.77;3.57;;;;;;;6.08;97.43;101777.63;4939619;28;20222;-69
2021/04/04 00:59:19;;;;;;;18.47;3.73;;;;;;;6.06;97.01;101787.75;4956065;28;20576;-69
2021/04/04 01:01:48;;;;;;;16.37;3.80;;;;;;;6.11;97.04;101781.75;4950355;28;20229;-72
2021/04/04 01:04:13;;;;;;;12.97;3.77;;;;;;;6.07;96.69;101778.66;4936059;29;20274;-69
2021/04/04 01:06:41;;;;;;;11.37;3.57;;;;;;;6.13;96.82;101775.06;4935733;29;20223;-69
2021/04/04 01:09:07;;;;;;;14.23;3.70;;;;;;;5.97;97.28;101786.38;4952412;29;20191;-69
2021/04/04 01:11:56;;;;;;;12.63;3.27;;;;;;;5.91;98.47;101786.41;4934870;29;20772;-70
2021/04/04 01:14:35;;;;;;;11.73;3.90;;;;;;;6.07;97.66;101775.94;4953403;29;20258;-69
2021/04/04 01:17:02;;;;;;;11.53;3.50;;;;;;;6.04;97.28;101779.06;4935650;29;20230;-70
2021/04/04 01:19:53;;;;;;;11.73;3.43;;;;;;;5.99;97.32;101773.50;4924258;29;20225;-70
2021/04/04 01:22:36;;;;;;;15.83;4.00;;;;;;;5.75;99.04;101782.34;4935991;28;20689;-69
2021/04/04 01:25:11;;;;;;;10.77;3.70;;;;;;;5.87;98.57;101786.00;4938749;28;20301;-69
2021/04/04 01:27:55;;;;;;;14.13;4.03;;;;;;;6.14;98.47;101782.97;4955145;28;20717;-69
2021/04/04 01:30:24;;;;;;;12.57;3.60;;;;;;;5.86;100.00;101780.81;4954778;28;20186;-69
2021/04/04 01:32:52;;;;;;;15.03;4.20;;;;;;;5.90;99.95;101765.88;4970354;28;20179;-71
2021/04/04 01:35:18;;;;;;;13.10;3.83;;;;;;;5.74;100.00;101764.50;4938186;28;20206;-69
2021/04/04 01:37:47;;;;;;;11.17;4.10;;;;;;;5.91;99.82;101768.34;4955469;28;20656;-70
2021/04/04 01:40:16;;;;;;;13.47;4.50;;;;;;;5.93;99.64;101773.53;4970406;28;20313;-71
2021/04/04 01:42:44;;;;;;;11.53;3.80;;;;;;;6.14;98.57;101771.34;4937755;28;20206;-70
2021/04/04 01:45:10;;;;;;;13.23;3.97;;;;;;;5.95;99.71;101772.28;4938241;28;20214;-69
2021/04/04 01:47:36;;;;;;;14.60;3.97;;;;;;;5.85;100.00;101769.22;4938984;28;20190;-69
2021/04/04 01:50:03;;;;;;;12.33;3.73;;;;;;;5.89;100.00;101766.91;4970797;28;20265;-69
2021/04/04 01:52:31;;;;;;;13.87;4.00;;;;;;;6.03;100.00;101763.13;4970467;28;20226;-70
2021/04/04 01:54:59;;;;;;;15.17;4.67;;;;;;;6.01;99.80;101755.25;4938369;28;20281;-70
2021/04/04 01:57:24;;;;;;;14.00;3.77;;;;;;;6.00;99.46;101763.53;4938243;28;20604;-69
2021/04/04 01:59:55;;;;;;;15.70;4.20;;;;;;;5.93;99.40;101757.34;4970520;28;20175;-69
2021/04/04 02:02:25;;;;;;;16.03;4.20;;;;;;;5.70;100.00;101759.72;4952784;28;20236;-69
2021/04/04 02:04:53;;;;;;;13.20;4.20;;;;;;;5.91;100.00;101759.44;4970655;28;20777;-70
2021/04/04 02:07:21;;;;;;;13.83;4.10;;;;;;;6.04;98.94;101765.56;4937985;28;20309;-70
2021/04/04 02:09:46;;;;;;;10.97;3.70;;;;;;;6.03;98.84;101745.06;4971668;28;20183;-69
2021/04/04 02:12:15;;;;;;;15.43;3.87;;;;;;;5.84;99.07;101743.31;4968993;28;20222;-70
2021/04/04 02:14:42;;;;;;;11.93;4.33;;;;;;;5.83;98.90;101747.03;4970401;28;20250;-70
2021/04/04 02:17:08;;;;;;;13.43;3.77;;;;;;;5.80;98.88;101741.25;4969788;28;20233;-70
2021/04/04 02:19:36;;;;;;;11.40;3.70;;;;;;;5.84;99.78;101743.31;4964833;28;20234;-70
2021/04/04 02:22:02;;;;;;;15.13;4.23;;;;;;;5.84;98.63;101746.00;4954735;28;20314;-69
2021/04/04 02:24:28;;;;;;;13.93;3.73;;;;;;;5.91;98.48;101732.47;4918510;29;20712;-69
2021/04/04 02:26:54;;;;;;;14.03;3.93;;;;;;;5.78;99.06;101746.03;4935412;29;20782;-70
2021/04/04 02:29:20;;;;;;;12.43;3.50;;;;;;;5.91;99.67;101733.28;4919389;29;20207;-69
2021/04/04 02:31:50;;;;;;;9.53;3.40;;;;;;;5.73;99.98;101734.22;4949457;28;20226;-70
2021/04/04 02:34:22;;;;;;;13.83;3.40;;;;;;;5.88;99.30;101722.97;4935052;29;20675;-69
2021/04/04 02:36:48;;;;;;;13.83;3.70;;;;;;;6.13;97.25;101732.78;4950261;28;20780;-69
2021/04/04 02:39:19;;;;;;;16.67;3.80;;;;;;;6.42;95.51;101728.63;4950801;29;20190;-69
2021/04/04 02:41:44;;;;;;;11.53;3.37;;;;;;;6.20;96.12;101720.03;4933959;28;20241;-70
2021/04/04 02:44:12;;;;;;;13.20;3.60;;;;;;;6.11;96.85;101715.13;4950601;29;20673;-69
2021/04/04 02:46:38;;;;;;;9.53;3.07;;;;;;;5.82;98.01;101715.75;4934151;29;20233;-70
2021/04/04 02:49:05;;;;;;;17.47;3.80;;;;;;;5.90;98.23;101710.09;4950894;29;20186;-69
2021/04/04 02:51:41;;;;;;;12.10;2.97;;;;;;;5.86;98.38;101710.72;4918661;29;20298;-69
2021/04/04 02:54:11;;;;;;;14.87;3.43;;;;;;;5.76;99.16;101724.66;4934122;29;20194;-68
2021/04/04 02:56:44;;;;;;;13.00;3.50;;;;;;;5.70;99.95;101718.47;4950141;28;20238;-69
2021/04/04 02:59:20;;;;;;;16.70;3.60;;;;;;;5.80;99.50;101709.72;4939876;28;20558;-69
2021/04/04 03:01:46;;;;;;;12.87;3.03;;;;;;;5.94;98.48;101714.00;4952668;28;20234;-69
2021/04/04 03:04:11;;;;;;;17.53;3.30;;;;;;;5.99;98.51;101707.94;4970011;28;20229;-70
2021/04/04 03:06:40;;;;;;;14.10;3.90;;;;;;;5.76;99.73;101710.38;4969187;28;20300;-69
2021/04/04 03:09:06;;;;;;;13.00;4.10;;;;;;;5.71;100.00;101707.47;4971267;28;20181;-69
2021/04/04 03:11:31;;;;;;;14.17;3.30;;;;;;;5.85;100.00;101701.00;4953286;28;20230;-71
2021/04/04 03:13:57;;;;;;;9.57;2.93;;;;;;;5.79;99.44;101702.69;4985150;28;20183;-69
2021/04/04 03:16:22;;;;;;;13.63;4.03;;;;;;;6.01;98.56;101701.31;4984814;28;20301;-68
2021/04/04 03:18:50;;;;;;;21.30;3.17;;;;;;;6.04;97.92;101700.88;4986523;28;20190;-70
2021/04/04 03:21:17;;;;;;;14.83;3.33;;;;;;;5.81;98.83;101695.22;4954840;28;20222;-70
2021/04/04 03:23:47;;;;;;;10.13;2.90;;;;;;;5.82;99.25;101704.97;4986158;28;20213;-70
2021/04/04 03:26:15;;;;;;;15.93;3.30;;;;;;;5.87;99.19;101705.13;4954250;28;20241;-70
2021/04/04 03:28:40;;;;;;;17.23;3.43;;;;;;;5.93;98.58;101696.16;4953952;28;20269;-69
2021/04/04 03:31:06;;;;;;;14.90;3.20;;;;;;;5.93;98.32;101701.56;4985688;28;20234;-69
2021/04/04 03:33:32;;;;;;;11.87;3.63;;;;;;;5.77;99.73;101699.38;4985284;28;20549;-69
2021/04/04 03:36:02;;;;;;;11.03;2.83;;;;;;;5.79;98.45;101701.88;4987831;28;20230;-70
2021/04/04 03:38:28;;;;;;;11.27;3.07;;;;;;;5.63;99.80;101701.50;4989078;28;20198;-70
2021/04/04 03:40:54;;;;;;;14.27;3.20;;;;;;;5.64;100.00;101701.31;4972900;28;20229;-69
2021/04/04 03:43:23;;;;;;;12.77;2.90;;;;;;;5.73;99.97;101691.94;4988465;28;20246;-69
2021/04/04 03:46:01;;;;;;;11.20;3.33;;;;;;;5.92;99.39;101697.22;4987713;28;20242;-70
2021/04/04 03:48:30;;;;;;;9.97;2.80;;;;;;;5.70;99.72;101691.53;4957091;28;20190;-70
2021/04/04 03:50:56;;;;;;;11.50;3.27;;;;;;;5.74;99.56;101695.47;4956407;28;20774;-70
2021/04/04 03:53:25;;;;;;;13.10;3.27;;;;;;;5.80;99.16;101682.75;4988435;28;20171;-70
2021/04/04 03:55:55;;;;;;;10.00;3.17;;;;;;;5.71;99.81;101679.69;4956204;28;20580;-69
2021/04/04 03:58:21;;;;;;;9.53;3.00;;;;;;;5.79;98.46;101681.13;4956974;28;20217;-70
2021/04/04 04:00:53;;;;;;;12.83;3.03;;;;;;;5.78;98.71;101678.63;4971208;28;20604;-70
2021/04/04 04:03:19;;;;;;;15.60;3.20;;;;;;;5.97;97.94;101669.59;4963307;28;20237;-70
2021/04/04 04:05:48;;;;;;;15.10;3.20;;;;;;;5.99;96.99;101676.44;4987362;28;20226;-70
2021/04/04 04:08:15;;;;;;;15.53;3.30;;;;;;;5.97;96.57;101677.69;4960777;28;20187;-69
2021/04/04 04:10:43;;;;;;;11.97;2.63;;;;;;;5.77;97.99;101672.44;4952744;28;20281;-70
2021/04/04 04:13:11;;;;;;;11.90;2.87;;;;;;;5.69;98.28;101663.72;4947462;28;20195;-71
2021/04/04 04:15:37;;;;;;;14.80;2.63;;;;;;;5.73;97.83;101664.97;4952632;28;20311;-71
2021/04/04 04:18:05;;;;;;;11.47;2.80;;;;;;;5.66;97.64;101661.50;4937394;29;20197;-69
2021/04/04 04:20:34;;;;;;;11.83;2.90;;;;;;;5.58;98.20;101660.91;4952406;28;20298;-70
2021/04/04 04:23:06;;;;;;;10.60;2.80;;;;;;;5.52;98.57;101661.78;4960053;28;20234;-69
2021/04/04 04:25:32;;;;;;;11.57;2.40;;;;;;;5.87;96.05;101662.00;4955643;28;20249;-70
2021/04/04 04:27:58;;;;;;;9.77;2.63;;;;;;;5.87;94.90;101662.00;4956763;28;20198;-70
2021/04/04 04:30:24;;;;;;;12.33;2.33;;;;;;;5.82;94.83;101652.91;4985402;28;20170;-71
2021/04/04 04:32:53;;;;;;;12.50;2.83;;;;;;;5.82;95.20;101642.97;4975114;28;20404;-70
2021/04/04 04:35:19;;;;;;;16.20;2.57;;;;;;;5.59;95.84;101646.41;4955664;28;20206;-70
2021/04/04 04:37:44;;;;;;;10.80;3.20;;;;;;;5.80;95.70;101641.50;4955858;28;20237;-71
2021/04/04 04:40:12;;;;;;;8.97;2.40;;;;;;;5.85;92.67;101636.31;4955512;28;20718;-69
2021/04/04 04:42:42;;;;;;;8.63;2.33;;;;;;;5.83;93.07;101643.78;4971487;28;20182;-70
2021/04/04 04:45:12;;;;;;;9.67;2.80;;;;;;;5.93;92.91;101634.16;4955017;28;20779;-70
2021/04/04 04:47:42;;;;;;;9.50;2.33;;;;;;;5.96;90.64;101624.81;4956730;28;20568;-70
2021/04/04 04:50:09;;;;;;;11.77;2.60;;;;;;;5.98;89.68;101631.63;4955979;28;20187;-69
2021/04/04 04:52:34;;;;;;;10.13;2.80;;;;;;;5.98;90.09;101626.25;4955889;28;20237;-70
2021/04/04 04:55:00;;;;;;;11.07;2.57;;;;;;;5.82;90.20;101623.25;4956621;28;20651;-70
2021/04/04 04:57:31;;;;;;;9.03;2.30;;;;;;;5.59;91.85;101624.84;4955892;28;20234;-71
2021/04/04 04:59:57;;;;;;;7.97;2.60;;;;;;;6.19;89.80;101623.16;4956295;28;20649;-69
2021/04/04 05:02:23;;;;;;;9.33;2.23;;;;;;;6.14;89.08;101629.22;4950896;28;20219;-70
2021/04/04 05:04:51;;;;;;;8.57;2.30;;;;;;;5.99;89.53;101624.38;4945132;28;20222;-69
2021/04/04 05:07:20;;;;;;;11.37;3.07;;;;;;;6.06;89.67;101620.56;4955962;28;20237;-70
2021/04/04 05:09:48;;;;;;;12.00;2.63;;;;;;;6.05;89.42;101632.41;4955956;28;20191;-70
2021/04/04 05:12:25;;;;;;;8.83;2.83;;;;;;;6.02;90.23;101622.06;4935669;28;20235;-70
2021/04/04 05:14:52;;;;;;;12.53;2.70;;;;;;;6.18;90.26;101626.91;4953675;28;20256;-71
2021/04/04 05:17:18;;;;;;;12.93;2.43;;;;;;;5.88;91.31;101625.09;4935544;29;20230;-68
2021/04/04 05:19:45;;;;;;;8.73;2.30;;;;;;;6.13;91.10;101624.06;4937064;29;20183;-69
2021/04/04 05:22:14;;;;;;;8.90;2.50;;;;;;;6.04;90.56;101625.38;4943749;28;20222;-69
2021/04/04 05:24:40;;;;;;;9.97;3.00;;;;;;;5.95;91.94;101634.78;4936708;29;20305;-68
2021/04/04 05:27:08;;;;;;;11.73;3.27;;;;;;;6.10;91.09;101629.91;4936350;29;20285;-70
2021/04/04 05:29:36;;;;;;;13.80;3.07;;;;;;;6.18;90.87;101626.91;4936715;29;20194;-71
2021/04/04 05:32:04;;;;;;;10.07;2.83;;;;;;;6.04;92.50;101630.75;4967189;28;20253;-70
2021/04/04 05:34:29;;;;;;;11.83;3.17;;;;;;;6.10;91.94;101638.00;4955519;28;20199;-71
2021/04/04 05:36:56;;;;;;;10.50;2.97;;;;;;;5.98;93.75;101623.56;4970102;28;20229;-71
2021/04/04 05:39:26;;;;;;;12.03;2.90;;;;;;;6.20;92.22;101624.84;4955022;28;20186;-70
2021/04/04 05:41:57;;;;;;;14.13;3.70;;;;;;;5.93;93.74;101623.38;4953776;28;20233;-71
2021/04/04 05:44:43;;;;;;;12.17;3.33;;;;;;;6.29;91.91;101626.22;4938899;28;20276;-70
2021/04/04 05:47:19;;;;;;;9.87;3.03;;;;;;;6.29;91.94;101610.03;4970370;28;20229;-70
2021/04/04 05:50:08;;;;;;;17.00;3.43;;;;;;;6.12;92.47;101608.94;4954955;28;20185;-71
2021/04/04 05:53:16;;;;;;;16.47;3.40;;;;;;;6.24;91.03;101617.94;4969294;28;20305;-70
2021/04/04 05:55:58;;;;;;;13.87;3.37;;;;;;;6.27;90.35;101620.22;4952128;28;20333;-69
2021/04/04 05:58:29;;;;;;;9.57;3.00;;;;;;;6.18;89.88;101625.03;4954655;28;20193;-69
2021/04/04 06:00:56;;;;;;;10.07;3.30;;;;;;;6.34;89.80;101620.97;4953909;28;20316;-69
2021/04/04 06:03:34;;;;;;;9.47;2.80;;;;;;;6.16;90.34;101634.41;4937956;28;20218;-70
2021/04/04 06:06:38;;;;;;;11.77;3.10;;;;;;;6.23;91.33;101629.78;4953937;28;20230;-68
2021/04/04 06:09:12;;;;;;;12.50;3.10;;;;;;;6.14;91.34;101631.09;4960156;28;20244;-70
2021/04/04 06:12:19;;;;;;;15.73;3.20;;;;;;;6.20;91.39;101632.91;4970295;28;20268;-70
2021/04/04 06:14:56;;;;;;;10.87;2.90;;;;;;;6.05;91.61;101632.41;4966812;28;20310;-69
2021/04/04 06:17:44;;;;;;;9.80;2.63;;;;;;;6.52;89.18;101635.34;4952017;28;20305;-70
2021/04/04 06:20:43;;;;;;;13.97;3.60;;;;;;;6.24;90.09;101631.44;4951138;28;20171;-72
2021/04/04 06:23:23;;;;;;;9.40;3.20;;;;;;;6.24;90.73;101621.47;4921291;29;20223;-69
2021/04/04 06:25:58;;;;;;;13.00;3.60;;;;;;;6.48;90.80;101623.31;4950513;28;20234;-70
2021/04/04 06:28:42;;;;;;;10.93;3.27;;;;;;;6.65;88.59;101633.31;4935260;29;20278;-69
2021/04/04 06:31:42;;;;;;;13.40;2.80;;;;;;;6.51;88.70;101627.47;4951166;29;20250;-69
2021/04/04 06:34:32;;;;;;;13.67;3.23;;;;;;;6.27;90.07;101631.81;4950784;28;20191;-70
2021/04/04 06:37:07;;;;;;;11.50;2.97;;;;;;;6.30;88.05;101633.22;4950329;28;20286;-69
2021/04/04 06:39:45;;;;;;;11.77;3.07;;;;;;;6.46;88.17;101620.00;4950897;29;20191;-70
2021/04/04 06:42:17;;;;;;;12.27;2.93;;;;;;;6.26;88.65;101626.63;4933893;29;20277;-69
2021/04/04 06:44:54;;;;;;;6.20;2.33;;;;;;;6.12;89.31;101622.41;4935226;29;20230;-72
2021/04/04 06:47:40;;;;;;;8.40;2.40;;;;;;;6.23;88.68;101625.22;4950504;29;20234;-70
2021/04/04 06:50:10;;;;;;;13.70;3.03;;;;;;;6.47;86.88;101615.47;4950098;29;20187;-68
2021/04/04 06:52:52;;;;;;;8.60;2.70;;;;;;;6.50;87.34;101620.41;4950211;29;20716;-71
2021/04/04 06:55:38;;;;;;;10.03;2.40;;;;;;;6.46;86.28;101622.72;4966040;28;21026;-70
2021/04/04 06:58:34;;;;;;;8.70;2.30;;;;;;;6.55;86.30;101624.91;4967098;28;20187;-70
2021/04/04 07:01:29;;;;;;;5.80;2.20;;;;;;;6.45;86.72;101623.78;4918361;28;20273;-69
2021/04/04 07:03:57;;;;;;;7.43;2.60;;;;;;;6.44;86.82;101624.81;4956787;28;20703;-69
2021/04/04 07:06:25;;;;;;;7.50;2.20;;;;;;;6.58;86.15;101629.88;4968912;28;20253;-69
2021/04/04 07:09:22;;;;;;;11.67;2.63;;;;;;;6.42;87.67;101629.59;4953498;28;20198;-69
2021/04/04 07:12:09;;;;;;;11.63;2.60;;;;;;;6.30;88.29;101625.16;4972723;28;20670;-69
2021/04/04 07:15:02;;;;;;;9.40;2.77;;;;;;;6.33;87.94;101630.09;4974246;28;20202;-69
2021/04/04 07:17:38;;;;;;;7.80;2.33;;;;;;;6.29;88.30;101618.13;4958654;28;20252;-68
2021/04/04 07:20:29;;;;;;;9.60;2.70;;;;;;;6.73;86.77;101610.63;4956642;28;20190;-70
2021/04/04 07:23:23;;;;;;;8.43;2.60;;;;;;;6.88;85.60;101614.59;4949364;28;20222;-69
2021/04/04 07:25:57;;;;;;;8.17;2.70;;;;;;;6.79;85.89;101613.22;4969732;28;20767;-69
2021/04/04 07:28:49;;;;;;;9.10;2.60;;;;;;;6.79;84.77;101618.63;4953881;29;20186;-68
2021/04/04 07:31:15;;;;;;;9.30;2.57;;;;;;;6.64;85.49;101609.25;4937718;29;20304;-69
2021/04/04 07:33:48;;;;;;;9.43;2.73;;;;;;;6.60;86.52;101611.56;4979808;28;20676;-69
2021/04/04 07:37:10;;;;;;;8.00;2.43;;;;;;;7.22;84.21;101600.47;4968490;28;20311;-69
2021/04/04 07:39:43;;;;;;;9.77;2.50;;;;;;;7.11;84.91;101614.75;4914480;29;20604;-69
2021/04/04 07:42:31;;;;;;;6.50;2.40;;;;;;;7.12;82.87;101609.09;4913190;29;20228;-70
2021/04/04 07:45:10;;;;;;;7.10;2.40;;;;;;;7.11;83.84;101604.75;4962110;28;20238;-70
2021/04/04 07:48:06;;;;;;;7.77;2.20;;;;;;;7.40;82.29;101599.38;4958537;28;20285;-69
2021/04/04 07:50:38;;;;;;;7.90;2.57;;;;;;;7.59;81.80;101606.38;4959523;28;20300;-69
2021/04/04 07:53:07;;;;;;;5.97;2.50;;;;;;;7.26;82.00;101607.88;4939247;29;20678;-70
2021/04/04 07:55:47;;;;;;;6.87;2.80;;;;;;;7.11;82.88;101603.94;4959570;28;20250;-69
2021/04/04 07:58:30;;;;;;;7.73;2.60;;;;;;;7.14;83.95;101603.47;4963018;28;20198;-68
2021/04/04 08:01:02;;;;;;;8.37;3.00;;;;;;;7.29;82.41;101594.75;4968327;28;20226;-69
2021/04/04 08:03:46;;;;;;;8.23;2.70;;;;;;;7.30;85.25;101609.06;4935382;28;20258;-68
2021/04/04 08:06:15;;;;;;;9.90;2.70;;;;;;;7.75;79.76;101598.44;4972530;28;20633;-69
2021/04/04 08:08:44;;;;;;;7.67;3.00;;;;;;;7.61;80.28;101601.56;4947214;28;20182;-69
2021/04/04 08:11:18;;;;;;;6.87;2.43;;;;;;;7.53;81.65;101609.19;4935395;28;20219;-69
2021/04/04 08:14:05;;;;;;;9.17;2.93;;;;;;;8.35;79.32;101606.25;4973116;28;20189;-73
2021/04/04 08:16:34;;;;;;;9.13;2.57;;;;;;;8.12;78.36;101599.97;4956265;28;20222;-70
2021/04/04 08:19:00;;;;;;;6.97;2.77;;;;;;;7.68;80.34;101602.31;4967257;28;20624;-70
2021/04/04 08:21:46;;;;;;;9.07;2.73;;;;;;;7.59;82.82;101598.28;4972400;28;20222;-69
2021/04/04 08:24:32;;;;;;;7.93;3.03;;;;;;;8.06;81.09;101606.28;4966591;28;20329;-68
2021/04/04 08:27:20;;;;;;;8.10;2.50;;;;;;;7.73;82.10;101599.75;4969967;28;20615;-69
2021/04/04 08:30:17;;;;;;;11.60;3.13;;;;;;;7.52;85.22;101602.13;4963003;28;20190;-68
2021/04/04 08:33:19;;;;;;;7.57;3.07;;;;;;;7.32;86.99;101596.97;4969433;28;20680;-68
2021/04/04 08:35:45;;;;;;;8.67;3.43;;;;;;;7.10;92.69;101608.50;4923730;28;20320;-70
2021/04/04 08:38:18;;;;;;;8.90;3.37;;;;;;;6.82;95.53;101607.38;4950036;28;20261;-70
2021/04/04 08:40:43;;;;;;;7.23;3.07;;;;;;;6.91;97.51;101619.56;4938796;28;20222;-69
2021/04/04 08:43:10;;;;;;;8.40;3.50;;;;;;;6.60;100.00;101619.66;4946482;28;20214;-68
2021/04/04 08:46:02;;;;;;;7.93;3.00;;;;;;;7.00;100.00;101618.19;4937573;28;20317;-68
2021/04/04 08:48:28;;;;;;;7.00;3.03;;;;;;;7.12;100.00;101613.69;4951003;28;20195;-69
2021/04/04 08:50:56;;;;;;;6.90;2.90;;;;;;;7.34;98.80;101607.56;4965041;28;20230;-69
2021/04/04 08:53:35;;;;;;;7.73;3.20;;;;;;;7.06;99.34;101611.88;4945797;28;20273;-69
2021/04/04 08:56:01;;;;;;;9.10;3.87;;;;;;;7.11;100.00;101609.34;4936933;28;20230;-71
2021/04/04 08:58:39;;;;;;;6.57;3.43;;;;;;;6.91;100.00;101609.56;4948928;28;20193;-68
2021/04/04 09:01:31;;;;;;;6.53;3.83;;;;;;;6.98;100.00;101604.09;4972252;28;20601;-69
2021/04/04 09:03:59;;;;;;;7.13;3.40;;;;;;;6.79;100.00;101607.81;4953075;28;20450;-71
2021/04/04 09:06:26;;;;;;;7.83;3.70;;;;;;;6.75;100.00;101609.34;4942584;28;20232;-69
2021/04/04 09:08:53;;;;;;;5.77;3.33;;;;;;;6.65;100.00;101609.03;4942921;28;20431;-68
2021/04/04 09:11:19;;;;;;;9.13;3.97;;;;;;;6.76;100.00;101602.91;4934683;28;20759;-70
2021/04/04 09:13:45;;;;;;;5.47;4.13;;;;;;;6.87;100.00;101606.69;4954881;28;20187;-67
2021/04/04 09:16:12;;;;;;;11.17;5.43;;;;;;;6.69;100.00;101607.53;4952211;28;20317;-71
2021/04/04 09:18:45;;;;;;;10.27;8.97;;;;;;;6.92;100.00;101599.56;4939078;28;20186;-69
2021/04/04 09:21:11;;;;;;;8.90;6.37;;;;;;;6.60;100.00;101606.16;4958609;28;20305;-69
2021/04/04 09:23:37;;;;;;;8.60;5.00;;;;;;;6.63;100.00;101611.13;4951386;28;20664;-71
2021/04/04 09:26:09;;;;;;;8.73;4.90;;;;;;;6.75;100.00;101609.34;4946076;28;20240;-69
2021/04/04 09:28:37;;;;;;;8.10;4.57;;;;;;;7.02;100.00;101602.59;4981384;28;20187;-70
2021/04/04 09:31:02;;;;;;;10.17;5.20;;;;;;;7.25;100.00;101605.41;4953662;28;20225;-70
2021/04/04 09:33:30;;;;;;;9.30;5.60;;;;;;;7.75;100.00;101603.03;4953008;28;20193;-69
2021/04/04 09:36:00;;;;;;;9.67;5.23;;;;;;;7.83;100.00;101600.00;4968648;28;20248;-70
2021/04/04 09:38:30;;;;;;;6.77;4.90;;;;;;;7.39;100.00;101595.03;4946602;28;20317;-70
2021/04/04 09:41:01;;;;;;;9.53;5.37;;;;;;;7.87;100.00;101602.00;4933788;29;20229;-73
2021/04/04 09:43:27;;;;;;;10.97;5.57;;;;;;;7.59;100.00;101595.56;4951374;28;20790;-71
2021/04/04 09:46:07;;;;;;;8.43;4.70;;;;;;;7.71;100.00;101591.03;4948606;28;20229;-68
2021/04/04 09:48:38;;;;;;;9.53;4.50;;;;;;;7.60;100.00;101582.88;4942519;29;20207;-69
2021/04/04 09:51:06;;;;;;;7.77;4.57;;;;;;;7.41;100.00;101579.41;4939880;28;20218;-69
2021/04/04 09:53:43;;;;;;;8.77;4.53;;;;;;;7.75;99.21;101584.13;4943077;28;20743;-69
2021/04/04 09:56:13;;;;;;;6.30;4.27;;;;;;;7.62;99.98;101573.50;4960734;28;20296;-69
2021/04/04 09:58:42;;;;;;;8.00;4.70;;;;;;;7.47;100.00;101575.81;4977362;28;20193;-70
2021/04/04 10:01:22;;;;;;;8.50;4.90;;;;;;;7.27;100.00;101566.31;4962323;28;20226;-69
2021/04/04 10:03:57;;;;;;;7.07;4.30;;;;;;;7.07;100.00;101564.91;4962978;28;20216;-71
2021/04/04 10:06:22;;;;;;;9.63;4.77;;;;;;;7.11;100.00;101566.13;4966612;28;20353;-69
2021/04/04 10:09:02;;;;;;;8.13;4.73;;;;;;;7.35;100.00;101569.50;4951435;28;20615;-70
2021/04/04 10:11:28;;;;;;;7.50;4.00;;;;;;;6.79;100.00;101570.03;4957505;28;20304;-70
2021/04/04 10:14:16;;;;;;;7.83;4.70;;;;;;;7.10;100.00;101559.06;4961884;28;20178;-70
2021/04/04 10:16:42;;;;;;;7.93;4.30;;;;;;;7.28;100.00;101562.56;4938470;28;20305;-70
2021/04/04 10:19:09;;;;;;;9.43;4.77;;;;;;;7.39;100.00;101570.69;4954394;28;20281;-70
2021/04/04 10:21:36;;;;;;;9.10;4.53;;;;;;;7.29;100.00;101567.72;4953024;28;20276;-72
2021/04/04 10:24:27;;;;;;;9.97;4.10;;;;;;;7.26;99.38;101561.97;4942320;29;20215;-70
2021/04/04 10:27:17;;;;;;;9.47;4.57;;;;;;;7.36;100.00;101570.31;4939289;28;20234;-71
2021/04/04 10:29:46;;;;;;;12.17;4.27;;;;;;;7.64;97.99;101559.72;4947911;28;20187;-70
2021/04/04 10:32:11;;;;;;;8.43;4.50;;;;;;;7.83;96.26;101557.53;4936737;28;20225;-69
2021/04/04 10:34:44;;;;;;;7.60;4.50;;;;;;;7.52;97.33;101557.00;4938160;28;20210;-70
2021/04/04 10:37:09;;;;;;;9.67;4.70;;;;;;;7.81;95.38;101553.44;4953131;28;20226;-69
2021/04/04 10:39:36;;;;;;;10.33;4.60;;;;;;;7.69;96.03;101549.88;4938541;28;20193;-71
2021/04/04 10:42:14;;;;;;;9.93;4.70;;;;;;;7.50;98.70;101545.59;4937542;28;21076;-72
2021/04/04 10:44:43;;;;;;;23.10;14.17;;;;;;;7.36;97.84;101544.16;4968254;28;20217;-70
2021/04/04 10:47:19;;;;;;;16.43;10.33;;;;;;;7.28;98.01;101540.94;4953634;28;20214;-70
2021/04/04 10:49:44;;;;;;;10.97;4.80;;;;;;;7.50;95.93;101534.78;4941060;29;20228;-73
2021/04/04 10:52:12;;;;;;;10.20;5.67;;;;;;;7.39;97.11;101532.88;4956459;28;20845;-70
2021/04/04 10:54:38;;;;;;;9.07;5.03;;;;;;;7.49;94.43;101522.34;4960817;28;20210;-69
2021/04/04 10:57:04;;;;;;;9.17;4.67;;;;;;;7.37;95.81;101524.16;4960013;28;20229;-71
2021/04/04 10:59:32;;;;;;;9.43;5.40;;;;;;;7.57;95.74;101519.28;4955683;28;20201;-69
2021/04/04 11:02:00;;;;;;;8.53;4.93;;;;;;;7.48;93.45;101523.38;4929500;29;20226;-71
2021/04/04 11:04:28;;;;;;;8.60;4.60;;;;;;;7.89;91.52;101517.94;4930773;28;20214;-70
2021/04/04 11:06:54;;;;;;;8.43;5.17;;;;;;;7.72;91.00;101511.56;4969581;28;20229;-69
2021/04/04 11:09:20;;;;;;;8.13;4.07;;;;;;;7.72;89.82;101512.38;4943356;28;20205;-70
2021/04/04 11:11:49;;;;;;;7.50;4.37;;;;;;;7.48;90.81;101509.03;4976207;28;20268;-71
2021/04/04 11:14:20;;;;;;;9.43;4.73;;;;;;;8.08;88.25;101507.59;4971258;28;20237;-73
2021/04/04 11:16:45;;;;;;;9.67;4.50;;;;;;;8.31;87.40;101504.09;4960044;28;20229;-69
2021/04/04 11:19:13;;;;;;;8.60;4.60;;;;;;;8.03;88.11;101499.34;4957922;28;20575;-69
2021/04/04 11:21:40;;;;;;;7.93;4.73;;;;;;;7.92;88.58;101491.25;4955845;28;20739;-68
2021/04/04 11:24:16;;;;;;;8.67;3.83;;;;;;;7.59;89.99;101502.84;4940556;29;20656;-69
2021/04/04 11:26:57;;;;;;;9.03;5.00;;;;;;;7.46;92.02;101492.25;4940371;29;20305;-69
2021/04/04 11:29:26;;;;;;;9.97;5.43;;;;;;;7.56;91.15;101498.72;4948051;28;20190;-70
2021/04/04 11:32:15;;;;;;;7.47;5.03;;;;;;;8.34;87.99;101492.78;4934917;28;20273;-68
2021/04/04 11:34:43;;;;;;;10.27;4.90;;;;;;;8.21;86.30;101485.75;4983955;28;20328;-68
2021/04/04 11:37:10;;;;;;;9.27;5.13;;;;;;;8.34;86.03;101474.66;4965059;28;20506;-69
2021/04/04 11:40:02;;;;;;;11.10;4.97;;;;;;;8.24;85.81;101469.03;4985561;28;20222;-73
2021/04/04 11:42:33;;;;;;;7.57;4.50;;;;;;;8.19;84.54;101462.69;4967149;28;20290;-70
2021/04/04 11:45:05;;;;;;;8.00;4.60;;;;;;;8.06;85.57;101461.00;4982284;28;20704;-70
2021/04/04 11:47:43;;;;;;;10.57;4.73;;;;;;;8.08;85.69;101463.50;4967713;28;20236;-77
2021/04/04 11:50:43;;;;;;;9.27;4.87;;;;;;;8.24;84.69;101457.38;4993383;28;20189;-73